Time;durP1;ratioP1;P1;durP2;ratioP2;P2;SDS_P1;SDS_P2;PMS_P1;PMS_P2;Temp;Humidity;BMP_temperature;BMP_pressure;BME280_temperature;BME280_humidity;BME280_pressure;Samples;Min_cycle;Max_cycle;Signal;HPM_P1;HPM_P2
2021/10/20 00:00:40;;;;;;;72.45;40.73;;;;;;;3.70;76.46;95444.88;1629906;88;20979;-58
2021/10/20 00:03:06;;;;;;;76.00;38.38;;;;;;;3.73;76.63;95436.70;1629477;87;21022;-58
2021/10/20 00:05:33;;;;;;;72.85;35.40;;;;;;;3.79;76.48;95433.02;1629549;87;21527;-59
2021/10/20 00:08:03;;;;;;;61.88;31.65;;;;;;;3.85;76.81;95430.89;1629748;88;21066;-59
2021/10/20 00:10:29;;;;;;;72.50;38.85;;;;;;;3.98;76.49;95433.44;1629636;87;22374;-59
2021/10/20 00:12:55;;;;;;;70.78;35.28;;;;;;;4.00;76.21;95431.67;1629701;88;21073;-58
2021/10/20 00:15:22;;;;;;;60.75;32.98;;;;;;;4.01;75.89;95425.86;1629645;88;20982;-58
2021/10/20 00:17:49;;;;;;;70.40;36.98;;;;;;;4.06;75.88;95418.66;1629345;87;20990;-58
2021/10/20 00:20:19;;;;;;;65.65;34.23;;;;;;;4.15;75.73;95424.50;1629895;88;21086;-58
2021/10/20 00:22:45;;;;;;;63.42;35.00;;;;;;;4.17;75.45;95420.80;1629619;88;22346;-59
2021/10/20 00:25:12;;;;;;;66.67;35.52;;;;;;;4.16;75.34;95409.72;1624177;88;21006;-58
2021/10/20 00:27:39;;;;;;;74.62;36.00;;;;;;;4.12;75.26;95403.50;1629853;88;20982;-58
2021/10/20 00:30:08;;;;;;;62.83;34.73;;;;;;;4.08;75.37;95407.39;1629741;88;21054;-59
2021/10/20 00:32:37;;;;;;;53.55;31.48;;;;;;;4.10;75.19;95409.92;1629734;88;21041;-59
2021/10/20 00:35:05;;;;;;;55.08;30.45;;;;;;;4.10;75.09;95407.20;1629642;88;21166;-57
2021/10/20 00:37:33;;;;;;;60.67;30.95;;;;;;;4.10;75.08;95400.97;1628335;87;21019;-59
2021/10/20 00:39:59;;;;;;;57.88;30.82;;;;;;;4.17;75.06;95403.67;1630009;87;20990;-59
2021/10/20 00:42:25;;;;;;;75.00;37.60;;;;;;;4.17;74.73;95399.02;1629763;88;21065;-58
2021/10/20 00:44:59;;;;;;;81.15;37.80;;;;;;;4.11;74.92;95390.27;1629869;88;21576;-58
2021/10/20 00:47:26;;;;;;;72.15;39.35;;;;;;;4.08;75.23;95393.18;1629764;88;21156;-58
2021/10/20 00:49:53;;;;;;;66.67;36.83;;;;;;;4.07;74.94;95390.27;1629920;88;20991;-59
2021/10/20 00:52:22;;;;;;;71.55;36.63;;;;;;;3.99;74.88;95383.28;1630007;88;20982;-58
2021/10/20 00:54:51;;;;;;;67.05;32.65;;;;;;;3.92;75.04;95381.93;1630025;86;21514;-58
2021/10/20 00:57:18;;;;;;;57.85;31.52;;;;;;;3.84;74.79;95384.44;1629725;88;21078;-58
2021/10/20 00:59:44;;;;;;;73.10;33.40;;;;;;;3.71;75.01;95384.63;1629638;88;21059;-58
2021/10/20 01:02:11;;;;;;;59.33;32.05;;;;;;;3.72;75.44;95386.17;1629545;86;21030;-59
2021/10/20 01:04:39;;;;;;;58.13;34.65;;;;;;;3.79;75.05;95375.31;1629858;88;20979;-58
2021/10/20 01:07:07;;;;;;;61.30;34.85;;;;;;;3.80;74.86;95371.42;1629750;88;21014;-58
2021/10/20 01:09:35;;;;;;;58.45;29.80;;;;;;;3.83;74.92;95369.28;1629776;88;20986;-57
2021/10/20 01:12:04;;;;;;;55.63;30.52;;;;;;;3.85;74.78;95366.95;1629850;87;20968;-58
2021/10/20 01:14:32;;;;;;;69.22;30.92;;;;;;;3.87;74.71;95364.61;1620902;87;21130;-58
2021/10/20 01:16:59;;;;;;;67.72;33.63;;;;;;;3.92;74.59;95361.52;1625461;88;21086;-58
2021/10/20 01:19:25;;;;;;;69.20;35.35;;;;;;;3.95;74.54;95355.29;1623530;88;21050;-58
2021/10/20 01:21:53;;;;;;;57.43;30.77;;;;;;;3.95;74.59;95356.66;1629848;88;20975;-59
2021/10/20 01:24:21;;;;;;;62.17;36.58;;;;;;;3.97;74.68;95358.40;1630089;87;21139;-57
2021/10/20 01:26:50;;;;;;;55.28;29.92;;;;;;;4.01;74.32;95360.53;1629684;87;21078;-58
2021/10/20 01:29:18;;;;;;;68.40;34.23;;;;;;;3.96;74.07;95350.61;1629865;87;21098;-59
2021/10/20 01:31:49;;;;;;;66.85;33.08;;;;;;;3.85;74.26;95353.34;1620513;88;21058;-58
2021/10/20 01:34:16;;;;;;;71.72;37.50;;;;;;;3.83;74.40;95348.88;1625180;88;21022;-58
2021/10/20 01:36:46;;;;;;;83.72;44.85;;;;;;;3.86;74.19;95346.73;1629767;88;21105;-59
2021/10/20 01:39:12;;;;;;;63.50;35.70;;;;;;;3.85;74.12;95342.45;1629488;87;21028;-59
2021/10/20 01:41:40;;;;;;;77.92;40.40;;;;;;;3.75;74.00;95350.62;1629950;87;21148;-58
2021/10/20 01:44:07;;;;;;;83.10;44.35;;;;;;;3.66;74.89;95342.84;1630048;88;21510;-59
2021/10/20 01:46:34;;;;;;;88.80;44.67;;;;;;;3.72;74.80;95337.20;1629692;87;21828;-59
2021/10/20 01:49:01;;;;;;;86.55;40.75;;;;;;;3.81;74.64;95339.53;1629662;87;21157;-60
2021/10/20 01:51:28;;;;;;;91.02;42.50;;;;;;;3.86;74.26;95344.00;1629803;88;21512;-57
2021/10/20 01:53:54;;;;;;;75.25;41.08;;;;;;;3.93;73.93;95339.14;1629736;88;21062;-58
2021/10/20 01:56:21;;;;;;;73.47;41.30;;;;;;;3.97;73.73;95330.39;1629719;88;21002;-58
2021/10/20 01:58:48;;;;;;;65.25;34.40;;;;;;;3.97;73.65;95330.39;1590092;89;21529;-59
2021/10/20 02:01:15;;;;;;;58.08;36.08;;;;;;;4.00;73.33;95321.44;1601716;89;21167;-58
2021/10/20 02:03:42;;;;;;;69.37;37.90;;;;;;;4.04;73.01;95332.52;1601728;89;20987;-58
2021/10/20 02:06:16;;;;;;;67.10;33.33;;;;;;;4.09;72.81;95328.63;1601119;89;21479;-58
2021/10/20 02:08:44;;;;;;;65.22;31.73;;;;;;;4.11;72.50;95331.17;1600974;89;21034;-58
2021/10/20 02:11:11;;;;;;;61.90;31.57;;;;;;;4.11;72.72;95324.93;1600853;89;20972;-57
2021/10/20 02:13:40;;;;;;;60.12;34.10;;;;;;;4.12;72.44;95328.64;1607486;89;21214;-59
2021/10/20 02:16:07;;;;;;;89.55;46.48;;;;;;;4.06;72.51;95319.89;1600573;87;21011;-58
2021/10/20 02:18:34;;;;;;;112.25;54.10;;;;;;;3.94;72.55;95316.20;1599873;89;21062;-58
2021/10/20 02:21:02;;;;;;;95.15;46.77;;;;;;;3.83;72.76;95318.94;1600023;89;21019;-59
2021/10/20 02:23:32;;;;;;;77.65;40.38;;;;;;;3.73;72.79;95320.30;1601928;89;20990;-59
2021/10/20 02:25:58;;;;;;;77.45;40.65;;;;;;;3.55;73.31;95325.73;1589955;89;21129;-58
2021/10/20 02:28:25;;;;;;;83.92;41.02;;;;;;;3.52;73.63;95323.03;1607597;89;21082;-58
2021/10/20 02:30:52;;;;;;;78.07;39.63;;;;;;;3.56;73.59;95320.51;1601257;89;21480;-59
2021/10/20 02:33:19;;;;;;;125.02;60.78;;;;;;;3.58;73.57;95319.54;1630688;87;20991;-58
2021/10/20 02:35:46;;;;;;;171.07;78.75;;;;;;;3.61;73.74;95326.91;1630014;88;21620;-57
2021/10/20 02:38:14;;;;;;;173.50;79.05;;;;;;;3.64;73.60;95324.77;1627665;88;21156;-58
2021/10/20 02:40:40;;;;;;;165.25;69.95;;;;;;;3.62;73.65;95320.31;1631466;88;20970;-58
2021/10/20 02:43:08;;;;;;;105.07;49.85;;;;;;;3.66;73.96;95321.08;1630194;88;21500;-58
2021/10/20 02:45:34;;;;;;;183.15;76.72;;;;;;;3.67;73.76;95319.91;1629985;88;21113;-58
2021/10/20 02:48:01;;;;;;;268.10;108.50;;;;;;;3.68;73.62;95320.10;1629655;88;21010;-59
2021/10/20 02:50:29;;;;;;;87.95;45.78;;;;;;;3.61;73.53;95321.48;1629963;88;21138;-58
2021/10/20 02:52:57;;;;;;;72.87;41.65;;;;;;;3.52;73.63;95322.43;1629690;88;21041;-59
2021/10/20 02:55:23;;;;;;;92.85;42.80;;;;;;;3.43;73.83;95326.70;1624002;88;21430;-59
2021/10/20 02:57:50;;;;;;;104.70;51.73;;;;;;;3.36;73.94;95318.55;1629648;88;21446;-58
2021/10/20 03:00:17;;;;;;;77.62;36.88;;;;;;;3.31;73.94;95325.73;1629726;88;21033;-58
2021/10/20 03:02:45;;;;;;;96.70;47.33;;;;;;;3.32;74.09;95330.57;1629301;88;21019;-59
2021/10/20 03:05:12;;;;;;;78.72;40.78;;;;;;;3.30;74.10;95330.19;1629612;88;20978;-58
2021/10/20 03:07:39;;;;;;;99.40;49.15;;;;;;;3.29;74.12;95328.06;1629971;88;21039;-58
2021/10/20 03:10:08;;;;;;;102.65;50.98;;;;;;;3.19;74.12;95327.45;1629753;88;21584;-58
2021/10/20 03:12:34;;;;;;;99.85;46.40;;;;;;;3.10;74.49;95335.21;1630090;88;21628;-59
2021/10/20 03:15:02;;;;;;;80.38;39.27;;;;;;;3.03;74.54;95326.27;1609730;88;21140;-59
2021/10/20 03:17:28;;;;;;;97.30;42.23;;;;;;;2.99;74.62;95325.45;1629766;88;21017;-58
2021/10/20 03:19:55;;;;;;;72.15;35.35;;;;;;;2.94;74.88;95328.55;1629699;88;21025;-59
2021/10/20 03:22:22;;;;;;;71.17;38.08;;;;;;;2.95;74.91;95330.11;1630001;88;20983;-58
2021/10/20 03:24:49;;;;;;;69.97;35.90;;;;;;;2.91;75.35;95332.80;1613955;89;20985;-59
2021/10/20 03:27:17;;;;;;;77.72;37.20;;;;;;;2.98;75.36;95338.84;1627815;88;21506;-58
2021/10/20 03:29:45;;;;;;;77.85;36.95;;;;;;;3.02;75.24;95334.98;1609400;88;37615;-58
2021/10/20 03:32:11;;;;;;;75.47;38.38;;;;;;;3.09;75.20;95339.06;1629579;88;22243;-58
2021/10/20 03:34:38;;;;;;;78.12;38.38;;;;;;;3.12;74.89;95334.24;1629657;88;21070;-58
2021/10/20 03:37:05;;;;;;;65.97;33.95;;;;;;;3.17;74.95;95329.78;1629770;88;21044;-59
2021/10/20 03:39:31;;;;;;;70.45;40.67;;;;;;;3.23;74.66;95328.23;1627140;88;21125;-59
2021/10/20 03:41:58;;;;;;;79.58;42.13;;;;;;;3.14;74.47;95323.76;1617143;88;21070;-58
2021/10/20 03:44:25;;;;;;;62.90;34.98;;;;;;;3.10;74.94;95322.19;1629633;88;21053;-59
2021/10/20 03:46:51;;;;;;;70.32;37.88;;;;;;;3.14;74.76;95329.77;1629763;88;21447;-58
2021/10/20 03:49:18;;;;;;;57.17;33.15;;;;;;;3.18;74.99;95332.69;1621210;88;21041;-58
2021/10/20 03:51:45;;;;;;;55.03;29.77;;;;;;;3.27;74.88;95324.16;1629665;88;22349;-58
2021/10/20 03:54:11;;;;;;;82.65;41.05;;;;;;;3.24;75.00;95335.81;1609714;88;20983;-58
2021/10/20 03:56:38;;;;;;;77.37;39.90;;;;;;;3.20;74.69;95322.80;1629827;88;21034;-59
2021/10/20 03:59:05;;;;;;;81.80;40.30;;;;;;;3.19;74.69;95331.53;1631049;88;21081;-59
2021/10/20 04:01:32;;;;;;;80.17;40.75;;;;;;;3.17;74.66;95327.06;1629544;88;21097;-59
2021/10/20 04:03:59;;;;;;;78.07;42.13;;;;;;;3.13;74.68;95324.92;1629615;87;21147;-58
2021/10/20 04:06:26;;;;;;;72.27;39.33;;;;;;;3.17;74.74;95328.98;1626370;88;21518;-58
2021/10/20 04:08:52;;;;;;;65.28;38.25;;;;;;;3.13;74.75;95324.13;1629735;87;20986;-58
2021/10/20 04:11:20;;;;;;;66.28;37.08;;;;;;;3.04;75.38;95330.53;1629824;87;21019;-60
2021/10/20 04:13:47;;;;;;;47.88;29.35;;;;;;;2.96;75.49;95316.72;1629817;88;21096;-58
2021/10/20 04:16:15;;;;;;;47.10;28.32;;;;;;;3.05;76.26;95321.22;1629860;88;21545;-59
2021/10/20 04:18:42;;;;;;;58.75;34.50;;;;;;;3.13;76.05;95318.70;1629465;88;20983;-58
2021/10/20 04:21:09;;;;;;;62.78;36.00;;;;;;;3.10;76.43;95327.05;1629896;88;21026;-58
2021/10/20 04:23:35;;;;;;;66.75;35.13;;;;;;;3.11;76.54;95315.02;1629765;88;21151;-59
2021/10/20 04:26:02;;;;;;;72.87;37.93;;;;;;;3.11;76.38;95315.59;1629756;87;20974;-58
2021/10/20 04:28:29;;;;;;;67.37;37.10;;;;;;;3.12;76.46;95318.50;1629875;88;21162;-59
2021/10/20 04:30:55;;;;;;;117.93;70.35;;;;;;;3.13;76.41;95315.98;1628759;88;21045;-58
2021/10/20 04:33:22;;;;;;;87.20;47.43;;;;;;;3.19;76.51;95307.63;1629807;88;20987;-59
2021/10/20 04:35:48;;;;;;;68.50;38.70;;;;;;;3.19;76.27;95309.78;1630145;88;21521;-58
2021/10/20 04:38:16;;;;;;;76.92;42.38;;;;;;;3.12;76.18;95307.63;1627194;88;21057;-58
2021/10/20 04:40:43;;;;;;;91.47;45.98;;;;;;;3.02;76.43;95291.50;1629750;87;21914;-59
2021/10/20 04:43:09;;;;;;;90.53;46.30;;;;;;;3.06;76.55;95298.31;1629717;88;21007;-58
2021/10/20 04:45:36;;;;;;;107.30;53.73;;;;;;;3.14;76.11;95291.70;1629803;88;21022;-58
2021/10/20 04:48:04;;;;;;;101.58;51.45;;;;;;;3.14;75.84;95294.42;1629708;88;21002;-59
2021/10/20 04:50:31;;;;;;;118.97;58.52;;;;;;;3.08;75.86;95293.27;1629738;87;21018;-59
2021/10/20 04:52:57;;;;;;;96.47;46.45;;;;;;;3.08;76.02;95290.55;1629698;87;21065;-59
2021/10/20 04:55:24;;;;;;;103.53;53.68;;;;;;;3.14;76.07;95291.14;1629763;88;21073;-58
2021/10/20 04:57:52;;;;;;;102.85;52.95;;;;;;;3.23;76.27;95290.77;1629823;86;21002;-58
2021/10/20 05:00:21;;;;;;;75.90;43.55;;;;;;;3.37;76.08;95285.31;1629019;88;21082;-58
2021/10/20 05:02:48;;;;;;;74.58;37.95;;;;;;;3.50;75.58;95286.69;1630995;87;21037;-59
2021/10/20 05:05:14;;;;;;;74.97;42.00;;;;;;;3.52;75.14;95295.23;1630024;88;21107;-58
2021/10/20 05:07:50;;;;;;;108.57;52.13;;;;;;;3.55;75.24;95276.77;1609672;88;20983;-58
2021/10/20 05:10:19;;;;;;;83.85;43.83;;;;;;;3.57;75.13;95283.98;1629775;88;21054;-59
2021/10/20 05:12:46;;;;;;;107.80;55.48;;;;;;;3.56;74.84;95282.43;1629701;88;21037;-59
2021/10/20 05:15:15;;;;;;;91.65;49.53;;;;;;;3.47;74.83;95283.20;1628188;88;21121;-60
2021/10/20 05:17:43;;;;;;;103.67;49.27;;;;;;;3.44;74.83;95282.02;1629770;86;21147;-60
2021/10/20 05:20:11;;;;;;;93.75;47.13;;;;;;;3.41;74.95;95285.52;1629860;86;20990;-62
2021/10/20 05:22:39;;;;;;;91.35;55.12;;;;;;;3.42;74.94;95284.95;1629658;87;21089;-61
2021/10/20 05:25:07;;;;;;;107.37;55.73;;;;;;;3.47;75.33;95275.83;1629871;88;21193;-60
2021/10/20 05:27:34;;;;;;;99.10;57.03;;;;;;;3.64;75.52;95280.45;1629223;87;21147;-60
2021/10/20 05:30:01;;;;;;;119.20;60.38;;;;;;;3.78;75.23;95283.17;1614791;87;21174;-60
2021/10/20 05:32:28;;;;;;;96.82;53.80;;;;;;;3.82;75.01;95283.94;1607350;86;21107;-60
2021/10/20 05:34:56;;;;;;;87.15;50.83;;;;;;;3.82;74.90;95277.92;1642745;85;21616;-59
2021/10/20 05:37:22;;;;;;;104.03;48.90;;;;;;;3.77;74.98;95285.70;1616867;86;21100;-61
2021/10/20 05:39:49;;;;;;;110.12;51.65;;;;;;;3.80;75.11;95287.06;1598333;87;21054;-59
2021/10/20 05:42:16;;;;;;;103.53;59.40;;;;;;;3.83;74.73;95286.28;1633593;86;21120;-62
2021/10/20 05:44:44;;;;;;;131.95;64.85;;;;;;;3.82;74.81;95290.17;1634581;86;21009;-58
2021/10/20 05:47:11;;;;;;;119.47;64.82;;;;;;;3.84;74.98;95291.92;1630845;85;21008;-58
2021/10/20 05:49:38;;;;;;;132.57;66.28;;;;;;;3.89;75.43;95292.11;1636007;85;21412;-60
2021/10/20 05:52:06;;;;;;;123.22;63.42;;;;;;;4.02;75.51;95285.09;1636775;85;21052;-59
2021/10/20 05:54:34;;;;;;;116.30;64.37;;;;;;;4.17;75.72;95273.77;1631681;86;21189;-61
2021/10/20 05:57:05;;;;;;;170.90;77.80;;;;;;;4.38;75.79;95272.34;1646832;85;21558;-64
2021/10/20 05:59:33;;;;;;;131.75;68.00;;;;;;;4.53;75.79;95275.21;1637655;85;21108;-60
2021/10/20 06:02:00;;;;;;;159.05;77.47;;;;;;;4.71;75.39;95275.91;1644041;85;22374;-61
2021/10/20 06:04:26;;;;;;;121.35;63.00;;;;;;;4.81;75.36;95273.70;1591393;87;21138;-59
2021/10/20 06:06:54;;;;;;;115.50;63.20;;;;;;;4.94;75.41;95267.99;1606354;86;21137;-58
2021/10/20 06:09:21;;;;;;;96.05;53.05;;;;;;;5.12;75.55;95270.02;1605241;87;21689;-60
2021/10/20 06:11:48;;;;;;;102.07;63.48;;;;;;;5.29;75.21;95261.74;1616492;86;21720;-59
2021/10/20 06:14:16;;;;;;;116.42;64.87;;;;;;;5.36;75.28;95263.05;1620005;87;21068;-60
2021/10/20 06:16:43;;;;;;;113.97;62.93;;;;;;;5.47;75.29;95260.23;1589105;87;21130;-56
2021/10/20 06:19:10;;;;;;;112.62;58.80;;;;;;;5.66;75.51;95262.41;1633820;85;21217;-58
2021/10/20 06:21:37;;;;;;;125.05;67.22;;;;;;;5.89;75.19;95257.16;1651700;84;21060;-59
2021/10/20 06:24:04;;;;;;;144.07;68.87;;;;;;;6.10;75.22;95254.22;1639094;85;21077;-60
2021/10/20 06:26:33;;;;;;;145.75;78.97;;;;;;;6.34;74.69;95261.39;1625502;86;21089;-63
2021/10/20 06:29:02;;;;;;;267.73;132.82;;;;;;;6.46;74.35;95258.11;1638048;85;21053;-61
2021/10/20 06:31:29;;;;;;;248.75;128.40;;;;;;;6.49;74.37;95252.62;1620512;85;21103;-60
2021/10/20 06:33:56;;;;;;;169.20;91.97;;;;;;;6.58;74.10;95248.81;1602314;85;22110;-59
2021/10/20 06:36:31;;;;;;;133.55;76.77;;;;;;;6.68;73.97;95250.63;1628219;85;22166;-59
2021/10/20 06:38:59;;;;;;;132.32;71.53;;;;;;;6.74;73.57;95242.14;1638672;85;21061;-61
2021/10/20 06:41:27;;;;;;;117.17;74.22;;;;;;;6.77;73.54;95243.30;1628180;85;21069;-61
2021/10/20 06:43:57;;;;;;;108.42;65.28;;;;;;;6.83;73.71;95238.91;1635599;85;21178;-58
2021/10/20 06:46:25;;;;;;;113.40;63.00;;;;;;;6.96;73.60;95231.70;1611429;85;21065;-60
2021/10/20 06:48:52;;;;;;;100.05;60.43;;;;;;;7.07;73.57;95232.34;1606207;86;21056;-63
2021/10/20 06:51:19;;;;;;;88.25;55.28;;;;;;;7.18;73.64;95237.23;1616456;85;21853;-59
2021/10/20 06:53:46;;;;;;;89.30;54.73;;;;;;;7.34;73.44;95230.54;1606817;85;21705;-60
2021/10/20 06:56:14;;;;;;;91.63;52.75;;;;;;;7.47;73.37;95231.52;1599041;87;21171;-64
2021/10/20 06:58:42;;;;;;;88.00;56.02;;;;;;;7.60;73.00;95230.33;1632252;85;21057;-59
2021/10/20 07:01:14;;;;;;;102.53;65.05;;;;;;;7.69;73.30;95227.84;1641462;85;20901;-63
2021/10/20 07:03:44;;;;;;;115.17;71.10;;;;;;;7.91;73.10;95223.55;1642483;85;21112;-65
2021/10/20 07:06:14;;;;;;;112.22;65.28;;;;;;;8.17;72.87;95217.98;1629938;85;21230;-60
2021/10/20 07:08:41;;;;;;;81.15;53.70;;;;;;;8.47;72.33;95210.94;1617570;85;22325;-62
2021/10/20 07:11:09;;;;;;;84.87;52.38;;;;;;;8.73;71.83;95207.29;1592610;87;21025;-60
2021/10/20 07:13:38;;;;;;;76.17;50.23;;;;;;;9.01;71.30;95210.78;1595014;87;21096;-60
2021/10/20 07:16:09;;;;;;;83.65;51.68;;;;;;;9.24;70.96;95212.05;1561194;89;22043;-67
2021/10/20 07:18:39;;;;;;;80.40;49.93;;;;;;;9.52;70.88;95207.25;1574114;87;21075;-62
2021/10/20 07:21:06;;;;;;;83.78;54.58;;;;;;;9.83;70.06;95207.84;1557442;88;21166;-60
2021/10/20 07:23:33;;;;;;;65.57;42.90;;;;;;;10.10;69.60;95194.61;1630338;85;21057;-60
2021/10/20 07:26:00;;;;;;;53.50;38.13;;;;;;;10.41;69.36;95196.33;1609140;86;21154;-62
2021/10/20 07:28:29;;;;;;;50.52;33.15;;;;;;;10.65;69.12;95186.60;1625460;85;21086;-61
2021/10/20 07:30:55;;;;;;;38.88;25.85;;;;;;;10.81;68.86;95190.83;1624251;85;21048;-61
2021/10/20 07:33:23;;;;;;;28.12;20.23;;;;;;;10.92;68.70;95182.26;1643928;85;21160;-62
2021/10/20 07:35:51;;;;;;;33.67;19.67;;;;;;;11.00;68.59;95182.23;1635372;85;21462;-63
2021/10/20 07:38:20;;;;;;;31.73;20.57;;;;;;;11.12;68.79;95179.48;1639867;85;22310;-60
2021/10/20 07:40:50;;;;;;;23.57;16.52;;;;;;;11.25;68.03;95183.02;1616435;85;21659;-60
2021/10/20 07:43:18;;;;;;;28.32;17.92;;;;;;;11.37;67.23;95186.36;1630581;85;21082;-61
2021/10/20 07:45:49;;;;;;;40.58;26.93;;;;;;;11.44;66.75;95180.65;1620738;86;21160;-62
2021/10/20 07:48:16;;;;;;;39.67;25.92;;;;;;;11.57;65.98;95171.77;1614683;86;21603;-63
2021/10/20 07:50:43;;;;;;;36.15;23.12;;;;;;;11.76;65.23;95172.16;1638227;85;21059;-62
2021/10/20 07:53:10;;;;;;;36.10;24.10;;;;;;;11.97;64.80;95167.90;1643235;85;21057;-60
2021/10/20 07:55:38;;;;;;;40.00;22.02;;;;;;;12.19;64.26;95161.81;1640058;85;21047;-63
2021/10/20 07:58:05;;;;;;;37.28;21.33;;;;;;;12.41;64.42;95156.48;1653148;84;22159;-62
2021/10/20 08:00:33;;;;;;;33.10;19.27;;;;;;;12.67;63.83;95155.91;1611547;85;21058;-61
2021/10/20 08:03:02;;;;;;;25.90;16.87;;;;;;;12.91;62.99;95145.91;1641472;85;21074;-61
2021/10/20 08:05:28;;;;;;;14.38;8.30;;;;;;;13.12;61.24;95152.66;1612507;86;21088;-66
2021/10/20 08:07:58;;;;;;;7.85;6.83;;;;;;;13.29;59.06;95140.16;1615651;86;21136;-64
2021/10/20 08:10:30;;;;;;;17.02;6.37;;;;;;;13.50;56.59;95140.69;1613975;86;21474;-62
2021/10/20 08:12:59;;;;;;;17.07;6.62;;;;;;;13.70;55.95;95141.05;1621527;86;21191;-67
2021/10/20 08:15:26;;;;;;;12.45;7.15;;;;;;;13.90;55.31;95140.79;1634758;85;21720;-63
2021/10/20 08:17:53;;;;;;;10.50;6.78;;;;;;;14.08;54.84;95138.65;1637932;85;21487;-65
2021/10/20 08:20:21;;;;;;;24.43;6.85;;;;;;;14.26;54.36;95140.08;1636585;85;21530;-64
2021/10/20 08:22:49;;;;;;;11.12;5.60;;;;;;;14.37;53.39;95145.93;1622440;85;22265;-63
2021/10/20 08:25:16;;;;;;;16.57;6.20;;;;;;;14.43;52.77;95144.23;1641608;85;21132;-64
2021/10/20 08:27:44;;;;;;;8.60;6.12;;;;;;;14.48;52.44;95143.60;1644536;85;21132;-63
2021/10/20 08:30:17;;;;;;;7.78;5.62;;;;;;;14.46;52.52;95132.22;1634745;85;21674;-61
2021/10/20 08:32:42;;;;;;;16.52;7.65;;;;;;;14.46;52.47;95133.61;1599950;85;21140;-64
2021/10/20 08:35:08;;;;;;;14.45;6.53;;;;;;;14.49;52.40;95130.54;1634599;85;21137;-59
2021/10/20 08:37:40;;;;;;;28.77;9.10;;;;;;;14.58;52.29;95125.77;1608234;86;22637;-64
2021/10/20 08:40:13;;;;;;;8.25;6.10;;;;;;;14.72;52.50;95111.28;1612005;87;21512;-67
2021/10/20 08:42:45;;;;;;;10.05;6.08;;;;;;;14.95;51.76;95110.61;1611244;87;21065;-67
2021/10/20 08:45:13;;;;;;;11.25;6.05;;;;;;;15.30;49.12;95129.77;1566622;87;21068;-63
2021/10/20 08:47:45;;;;;;;12.37;5.08;;;;;;;15.58;49.05;95110.37;1565145;88;21172;-66
2021/10/20 08:50:14;;;;;;;16.60;5.60;;;;;;;15.90;47.46;95099.86;1570857;88;21509;-67
2021/10/20 08:52:43;;;;;;;9.43;5.83;;;;;;;16.18;46.76;95094.88;1602550;87;21046;-63
2021/10/20 08:55:12;;;;;;;10.70;5.65;;;;;;;16.39;46.35;95097.36;1570741;87;21209;-64
2021/10/20 08:57:40;;;;;;;13.40;5.33;;;;;;;16.58;45.96;95098.09;1591032;87;21334;-65
2021/10/20 09:00:09;;;;;;;17.00;7.55;;;;;;;16.77;44.83;95100.84;1567795;87;21827;-64
2021/10/20 09:02:40;;;;;;;9.85;5.60;;;;;;;16.89;44.27;95087.30;1594672;87;21029;-63
2021/10/20 09:05:08;;;;;;;13.40;6.55;;;;;;;16.96;43.08;95089.71;1593700;87;21129;-66
2021/10/20 09:07:47;;;;;;;9.28;4.25;;;;;;;16.98;43.16;95085.83;1573532;89;27576;-63
2021/10/20 09:10:15;;;;;;;11.28;4.90;;;;;;;17.03;42.53;95086.53;1584087;88;21213;-63
2021/10/20 09:12:42;;;;;;;14.13;4.22;;;;;;;17.02;42.45;95078.05;1619423;87;21258;-65
2021/10/20 09:15:21;;;;;;;9.85;4.15;;;;;;;17.04;41.89;95070.61;1593436;87;21081;-62
2021/10/20 09:18:07;;;;;;;6.90;3.65;;;;;;;17.15;42.04;95070.80;1568978;89;21633;-63
2021/10/20 09:20:36;;;;;;;15.50;4.33;;;;;;;17.25;40.17;95072.23;1588666;87;21070;-66
2021/10/20 09:23:12;;;;;;;10.03;9.03;;;;;;;17.38;40.94;95067.13;1575379;88;21135;-65
2021/10/20 09:25:57;;;;;;;6.58;4.28;;;;;;;17.53;41.14;95061.69;1595158;88;21172;-67
2021/10/20 09:28:39;;;;;;;19.90;4.80;;;;;;;17.79;39.37;95070.15;1583267;88;21117;-64
2021/10/20 09:31:10;;;;;;;13.93;12.63;;;;;;;17.92;37.89;95059.42;1578088;89;21440;-63
2021/10/20 09:33:40;;;;;;;13.55;5.53;;;;;;;17.88;38.70;95060.26;1613257;86;22017;-62
2021/10/20 09:36:20;;;;;;;23.27;6.37;;;;;;;17.83;37.98;95058.93;1641529;85;21055;-65
2021/10/20 09:38:47;;;;;;;19.65;6.08;;;;;;;17.74;38.05;95054.91;1613099;86;21164;-63
2021/10/20 09:41:14;;;;;;;10.90;5.28;;;;;;;17.66;38.36;95057.94;1603744;86;21141;-62
2021/10/20 09:43:44;;;;;;;8.48;5.90;;;;;;;17.62;38.77;95049.67;1619966;85;21116;-60
2021/10/20 09:46:11;;;;;;;7.55;4.67;;;;;;;17.59;38.84;95057.58;1648307;84;20989;-61
2021/10/20 09:48:41;;;;;;;11.43;3.85;;;;;;;17.53;38.90;95044.22;1616623;86;21037;-63
2021/10/20 09:51:13;;;;;;;11.10;7.67;;;;;;;17.47;39.18;95046.91;1619947;86;21246;-64
2021/10/20 09:53:43;;;;;;;6.80;5.28;;;;;;;17.46;38.96;95047.42;1627297;85;21095;-65
2021/10/20 09:56:23;;;;;;;15.70;9.43;;;;;;;17.47;38.87;95040.60;1627996;85;21570;-64
2021/10/20 09:58:54;;;;;;;14.28;10.55;;;;;;;17.53;38.49;95043.61;1636676;84;21096;-63
2021/10/20 10:01:26;;;;;;;22.07;18.42;;;;;;;17.85;38.10;95042.50;1630101;85;20972;-65
2021/10/20 10:03:56;;;;;;;11.08;9.10;;;;;;;18.50;37.05;95023.67;1632186;85;21148;-64
2021/10/20 10:06:23;;;;;;;12.70;5.15;;;;;;;19.22;35.67;95040.45;1630400;85;21072;-64
2021/10/20 10:08:50;;;;;;;10.13;4.30;;;;;;;19.86;34.81;95038.58;1618091;85;21021;-64
2021/10/20 10:11:19;;;;;;;7.85;3.45;;;;;;;20.39;34.08;95022.56;1647389;85;21093;-65
2021/10/20 10:13:50;;;;;;;12.65;2.85;;;;;;;20.98;32.99;95007.84;1631682;85;21082;-63
2021/10/20 10:16:27;;;;;;;4.97;3.87;;;;;;;21.41;32.09;95013.28;1653168;85;21105;-65
2021/10/20 10:18:56;;;;;;;7.12;2.60;;;;;;;21.82;31.67;95011.44;1638124;85;21580;-74
2021/10/20 10:21:32;;;;;;;8.80;2.62;;;;;;;22.26;30.95;95005.03;1595256;87;21086;-67
2021/10/20 10:24:05;;;;;;;20.05;3.27;;;;;;;22.75;30.59;95019.47;1636915;86;21067;-66
2021/10/20 10:26:36;;;;;;;7.53;2.67;;;;;;;23.12;29.68;95023.95;1597506;87;21105;-69
2021/10/20 10:29:11;;;;;;;9.15;2.00;;;;;;;23.35;28.95;95026.70;1612319;86;21176;-66
2021/10/20 10:31:41;;;;;;;3.35;2.20;;;;;;;23.77;29.17;95023.23;1581953;86;20932;-67
2021/10/20 10:34:21;;;;;;;12.45;3.25;;;;;;;24.25;28.76;95014.17;1626216;86;21032;-65
2021/10/20 10:36:53;;;;;;;4.33;2.95;;;;;;;24.60;28.61;95011.83;1630362;86;21060;-65
2021/10/20 10:39:23;;;;;;;7.25;4.00;;;;;;;24.66;28.02;95002.66;1624708;86;21121;-66
2021/10/20 10:41:50;;;;;;;4.42;2.30;;;;;;;24.60;27.58;95017.46;1630083;85;21216;-66
2021/10/20 10:44:23;;;;;;;9.70;3.62;;;;;;;24.37;27.63;95011.33;1609451;86;21723;-66
2021/10/20 10:47:18;;;;;;;7.90;3.20;;;;;;;24.23;28.43;94998.45;1644439;84;21147;-69
2021/10/20 10:49:54;;;;;;;4.22;3.83;;;;;;;23.88;28.55;95007.70;1635331;86;21025;-63
2021/10/20 10:52:26;;;;;;;5.92;2.90;;;;;;;23.21;29.06;95001.16;1622278;85;21122;-64
2021/10/20 10:55:18;;;;;;;4.67;2.00;;;;;;;22.66;30.26;95000.13;1618167;86;21203;-66
2021/10/20 10:57:55;;;;;;;3.95;2.52;;;;;;;22.17;30.76;95003.16;1639478;85;21011;-65
2021/10/20 11:00:28;;;;;;;4.15;2.40;;;;;;;21.68;30.58;94996.33;1634434;86;21093;-64
2021/10/20 11:02:59;;;;;;;3.20;2.47;;;;;;;21.23;31.74;94987.22;1621405;87;21135;-66
2021/10/20 11:05:31;;;;;;;9.30;2.90;;;;;;;21.03;32.44;94986.09;1628389;86;21085;-65
2021/10/20 11:08:10;;;;;;;3.77;2.70;;;;;;;20.71;32.94;94982.61;1576639;87;21087;-64
2021/10/20 11:10:40;;;;;;;5.12;3.55;;;;;;;20.41;33.27;94977.34;1612890;87;21029;-66
2021/10/20 11:13:12;;;;;;;5.55;3.60;;;;;;;20.14;33.47;94971.81;1619115;86;21074;-66
2021/10/20 11:15:39;;;;;;;4.05;3.00;;;;;;;19.96;33.96;94972.84;1619062;87;21561;-64
2021/10/20 11:18:06;;;;;;;8.23;4.85;;;;;;;19.88;34.19;94974.61;1622455;87;21111;-65
2021/10/20 11:20:37;;;;;;;6.97;4.17;;;;;;;19.80;34.41;94972.17;1619245;86;22226;-64
2021/10/20 11:23:10;;;;;;;3.80;2.72;;;;;;;19.73;34.17;94973.28;1633245;86;21632;-64
2021/10/20 11:25:41;;;;;;;3.08;2.42;;;;;;;19.63;34.54;94967.15;1635695;85;21078;-63
2021/10/20 11:28:10;;;;;;;3.25;2.40;;;;;;;19.60;34.52;94965.98;1636852;86;21120;-66
2021/10/20 11:30:38;;;;;;;3.58;2.52;;;;;;;19.64;34.69;94964.48;1621506;86;21076;-65